Time;durP1;ratioP1;P1;durP2;ratioP2;P2;SDS_P1;SDS_P2;PMS_P1;PMS_P2;Temp;Humidity;BMP_temperature;BMP_pressure;BME280_temperature;BME280_humidity;BME280_pressure;Samples;Min_cycle;Max_cycle;Signal;HPM_P1;HPM_P2
2021/06/24 00:00:55;;;;;;;16.03;14.47;;;20.10;87.10;;;;;;5035336;28;20507;-76
2021/06/24 00:03:25;;;;;;;17.03;15.43;;;20.10;88.90;;;;;;5038658;28;20467;-76
2021/06/24 00:05:52;;;;;;;16.93;15.20;;;20.10;89.60;;;;;;5055624;28;20545;-76
2021/06/24 00:08:19;;;;;;;16.40;14.90;;;20.00;90.50;;;;;;5051318;28;20432;-76
2021/06/24 00:10:47;;;;;;;17.20;15.60;;;19.90;91.60;;;;;;5036544;28;20840;-76
2021/06/24 00:13:16;;;;;;;16.53;14.83;;;19.90;92.50;;;;;;5044849;28;20503;-76
2021/06/24 00:15:43;;;;;;;18.77;17.03;;;19.80;94.00;;;;;;5098464;22;20782;-77
2021/06/24 00:18:10;;;;;;;18.60;16.70;;;19.70;94.60;;;;;;5038577;28;20453;-77
2021/06/24 00:20:39;;;;;;;18.50;16.57;;;19.70;95.30;;;;;;5037646;28;20528;-75
2021/06/24 00:23:07;;;;;;;18.40;16.80;;;19.60;96.50;;;;;;5036595;28;20877;-76
2021/06/24 00:25:34;;;;;;;20.20;17.10;;;19.60;97.30;;;;;;5035520;28;20884;-75
2021/06/24 00:28:01;;;;;;;18.13;16.53;;;19.50;97.40;;;;;;5035790;28;20493;-75
2021/06/24 00:30:29;;;;;;;18.00;16.40;;;19.40;97.50;;;;;;5035049;28;20457;-77
2021/06/24 00:32:56;;;;;;;18.63;16.77;;;19.40;98.10;;;;;;5035097;28;20522;-76
2021/06/24 00:35:23;;;;;;;20.70;17.70;;;19.40;98.80;;;;;;5035511;28;20837;-76
2021/06/24 00:37:50;;;;;;;18.30;16.60;;;19.40;98.50;;;;;;5035927;28;20483;-75
2021/06/24 00:40:17;;;;;;;18.17;16.37;;;19.40;98.00;;;;;;5038093;28;20493;-77
2021/06/24 00:42:45;;;;;;;20.80;18.80;;;19.40;98.50;;;;;;5036319;28;20513;-76
2021/06/24 00:45:14;;;;;;;17.63;15.90;;;19.40;98.10;;;;;;5037313;28;20504;-77
2021/06/24 00:47:43;;;;;;;17.90;16.10;;;19.30;98.00;;;;;;5036597;28;20868;-76
2021/06/24 00:50:12;;;;;;;19.50;17.60;;;19.30;97.90;;;;;;5036116;28;20515;-77
2021/06/24 00:52:39;;;;;;;18.63;16.83;;;19.40;98.80;;;;;;5034568;28;20544;-74
2021/06/24 00:55:07;;;;;;;17.77;16.17;;;19.40;99.60;;;;;;5034731;28;20475;-76
2021/06/24 00:57:34;;;;;;;18.50;16.63;;;19.50;99.90;;;;;;5034621;28;20511;-76
2021/06/24 01:00:02;;;;;;;18.33;16.43;;;19.50;99.90;;;;;;5037363;28;20511;-77
2021/06/24 01:02:29;;;;;;;19.20;17.00;;;19.50;99.90;;;;;;5049906;28;20480;-75
2021/06/24 01:04:58;;;;;;;18.33;16.63;;;19.60;99.90;;;;;;5052248;28;20480;-76
2021/06/24 01:07:25;;;;;;;17.40;15.80;;;19.70;99.90;;;;;;5035002;28;20534;-76
2021/06/24 01:09:52;;;;;;;18.00;16.20;;;19.60;99.90;;;;;;5036440;28;20529;-76
2021/06/24 01:12:20;;;;;;;18.13;15.57;;;19.60;99.90;;;;;;5036467;28;20500;-75
2021/06/24 01:14:49;;;;;;;20.17;17.57;;;19.60;99.90;;;;;;5057734;28;20482;-75
2021/06/24 01:17:16;;;;;;;16.53;15.00;;;19.60;99.90;;;;;;5058404;28;20455;-75
2021/06/24 01:19:43;;;;;;;14.97;13.50;;;19.60;99.90;;;;;;5058211;28;20438;-75
2021/06/24 01:22:12;;;;;;;14.20;12.83;;;19.50;99.90;;;;;;5057900;28;20449;-74
2021/06/24 01:24:41;;;;;;;13.27;11.90;;;19.40;99.90;;;;;;5056513;28;20511;-76
2021/06/24 01:27:08;;;;;;;11.03;10.03;;;19.40;99.90;;;;;;5042746;28;20537;-75
2021/06/24 01:29:35;;;;;;;11.07;9.77;;;19.30;99.90;;;;;;5037659;28;20531;-76
2021/06/24 01:32:02;;;;;;;7.50;6.80;;;19.20;99.90;;;;;;5035185;28;20501;-76
2021/06/24 01:34:29;;;;;;;6.17;5.63;;;19.10;99.90;;;;;;5034633;28;20480;-77
2021/06/24 01:36:56;;;;;;;6.53;6.03;;;19.00;99.90;;;;;;5038784;28;20530;-77
2021/06/24 01:39:23;;;;;;;5.93;5.40;;;19.00;99.90;;;;;;5055692;28;20464;-76
2021/06/24 01:41:59;;;;;;;5.20;4.80;;;18.90;99.90;;;;;;5057934;28;20444;-75
2021/06/24 01:44:31;;;;;;;4.10;3.80;;;18.90;99.90;;;;;;5057774;28;20498;-74
2021/06/24 01:46:58;;;;;;;4.60;3.80;;;18.70;99.90;;;;;;5057622;28;20433;-74
2021/06/24 01:49:26;;;;;;;10.03;3.57;;;18.60;99.90;;;;;;5057496;28;20426;-75
2021/06/24 01:51:53;;;;;;;4.23;2.80;;;18.50;99.90;;;;;;5057809;28;20410;-75
2021/06/24 01:54:21;;;;;;;3.00;2.80;;;18.50;99.90;;;;;;5053751;28;20480;-75
2021/06/24 01:56:48;;;;;;;3.17;2.97;;;18.40;99.90;;;;;;5045785;28;20519;-77
2021/06/24 01:59:17;;;;;;;3.00;2.80;;;18.40;99.90;;;;;;5053676;28;20453;-75
2021/06/24 02:01:43;;;;;;;2.67;2.47;;;18.40;99.90;;;;;;5055343;28;20451;-75
2021/06/24 02:04:11;;;;;;;2.40;2.20;;;18.30;99.90;;;;;;5044455;28;20928;-77
2021/06/24 02:06:38;;;;;;;4.27;3.03;;;18.20;99.90;;;;;;5034971;28;20537;-77
2021/06/24 02:09:06;;;;;;;3.00;2.80;;;18.20;99.90;;;;;;5034613;28;20485;-77
2021/06/24 02:11:33;;;;;;;3.20;2.90;;;18.20;99.90;;;;;;5035023;28;20510;-77
2021/06/24 02:14:01;;;;;;;3.40;3.07;;;18.10;99.90;;;;;;5033387;28;20555;-76
2021/06/24 02:16:29;;;;;;;4.03;2.90;;;18.00;99.90;;;;;;5034038;28;20498;-76
2021/06/24 02:18:56;;;;;;;3.67;3.37;;;18.00;99.90;;;;;;5034100;28;20512;-77
2021/06/24 02:21:23;;;;;;;4.40;3.30;;;17.90;99.90;;;;;;5041117;28;20455;-76
2021/06/24 02:23:50;;;;;;;4.10;3.63;;;17.90;99.90;;;;;;5042323;28;20477;-75
2021/06/24 02:26:17;;;;;;;3.80;3.50;;;17.90;99.90;;;;;;5040298;28;20478;-76
2021/06/24 02:28:44;;;;;;;3.87;3.60;;;17.90;99.90;;;;;;5046906;28;20470;-75
2021/06/24 02:31:10;;;;;;;3.27;3.07;;;17.80;99.90;;;;;;5056383;28;20465;-75
2021/06/24 02:33:39;;;;;;;4.00;3.60;;;17.80;99.90;;;;;;5056241;28;20486;-75
2021/06/24 02:36:06;;;;;;;3.83;3.53;;;17.80;99.90;;;;;;5059152;28;20471;-75
2021/06/24 02:38:33;;;;;;;4.23;3.53;;;17.90;99.90;;;;;;5052677;28;20456;-75
2021/06/24 02:41:00;;;;;;;4.33;3.93;;;17.80;99.90;;;;;;5037047;28;20537;-76
2021/06/24 02:43:27;;;;;;;3.73;3.47;;;17.80;99.90;;;;;;5036536;28;20512;-76
2021/06/24 02:45:55;;;;;;;3.73;3.30;;;17.70;99.90;;;;;;5036758;28;20502;-75
2021/06/24 02:48:22;;;;;;;5.00;4.07;;;17.60;99.90;;;;;;5037180;28;20484;-75
2021/06/24 02:50:50;;;;;;;4.10;3.80;;;17.50;99.90;;;;;;5043287;28;20207;-76
2021/06/24 02:53:18;;;;;;;4.77;4.37;;;17.40;99.90;;;;;;5044905;28;20749;-76
2021/06/24 02:55:45;;;;;;;4.10;3.70;;;17.30;99.90;;;;;;5036275;28;20988;-76
2021/06/24 02:58:12;;;;;;;3.50;3.20;;;17.30;99.90;;;;;;5036232;28;20981;-76
2021/06/24 03:00:39;;;;;;;3.85;3.55;;;17.30;99.90;;;;;;5036250;28;20572;-76
2021/06/24 03:03:06;;;;;;;4.10;3.80;;;17.20;99.90;;;;;;5036221;28;20230;-76
2021/06/24 03:05:33;;;;;;;3.47;3.20;;;17.20;99.90;;;;;;5036253;28;20314;-76
2021/06/24 03:08:01;;;;;;;4.10;3.80;;;17.10;99.90;;;;;;5036140;28;20458;-76
2021/06/24 03:10:28;;;;;;;3.47;3.17;;;17.10;99.90;;;;;;5035838;28;20515;-76
2021/06/24 03:12:55;;;;;;;5.90;3.43;;;17.00;99.90;;;;;;5035725;28;20534;-76
2021/06/24 03:15:22;;;;;;;3.85;3.55;;;17.00;99.90;;;;;;5036348;28;20547;-76
2021/06/24 03:17:50;;;;;;;3.20;2.97;;;17.00;99.90;;;;;;5037108;28;20301;-76
2021/06/24 03:20:18;;;;;;;5.75;3.17;;;16.90;99.90;;;;;;5036376;28;20464;-75
2021/06/24 03:22:45;;;;;;;2.90;2.70;;;16.90;99.90;;;;;;5036263;28;20242;-74
2021/06/24 03:25:15;;;;;;;2.83;2.63;;;16.90;99.90;;;;;;5036831;28;20500;-76
2021/06/24 03:27:42;;;;;;;3.63;2.90;;;16.90;99.90;;;;;;5037840;28;20957;-75
2021/06/24 03:30:13;;;;;;;3.22;2.20;;;16.90;99.90;;;;;;5036737;28;20204;-75
2021/06/24 03:32:40;;;;;;;2.30;2.20;;;17.00;99.90;;;;;;5038053;28;20203;-75
2021/06/24 03:35:08;;;;;;;2.70;2.23;;;17.00;99.90;;;;;;5044838;28;20238;-75
2021/06/24 03:37:35;;;;;;;2.00;1.90;;;16.90;99.90;;;;;;5051080;28;20498;-76
2021/06/24 03:40:04;;;;;;;2.53;2.33;;;16.80;99.90;;;;;;5048231;28;20459;-75
2021/06/24 03:42:33;;;;;;;3.17;1.70;;;16.70;99.90;;;;;;5052267;28;20449;-75
2021/06/24 03:45:00;;;;;;;1.00;1.00;;;16.60;99.90;;;;;;5035098;28;20445;-75
2021/06/24 03:47:27;;;;;;;2.23;1.83;;;16.60;99.90;;;;;;5034397;28;20485;-75
2021/06/24 03:49:54;;;;;;;1.92;1.83;;;16.50;99.90;;;;;;5035167;28;21172;-75
2021/06/24 03:52:21;;;;;;;1.80;1.70;;;16.50;99.90;;;;;;5034955;28;20631;-75
2021/06/24 03:54:48;;;;;;;2.40;1.80;;;16.50;99.90;;;;;;5034481;28;20281;-74
2021/06/24 03:57:15;;;;;;;2.42;1.65;;;16.50;99.90;;;;;;5035267;28;20269;-75
2021/06/24 03:59:43;;;;;;;1.90;1.80;;;16.50;99.90;;;;;;5035066;28;20238;-75
2021/06/24 04:02:10;;;;;;;1.67;1.50;;;16.40;99.90;;;;;;5035317;28;20765;-75
2021/06/24 04:04:37;;;;;;;1.37;1.27;;;16.40;99.90;;;;;;5035172;28;20510;-75
2021/06/24 04:07:04;;;;;;;1.40;1.30;;;16.40;99.90;;;;;;5034752;28;20465;-75
2021/06/24 04:09:31;;;;;;;1.27;1.27;;;16.40;99.90;;;;;;5034856;28;20973;-75
2021/06/24 04:11:58;;;;;;;2.97;1.30;;;16.40;99.90;;;;;;5034972;28;20261;-75
2021/06/24 04:14:25;;;;;;;1.20;1.10;;;16.30;99.90;;;;;;5034783;28;20305;-75
2021/06/24 04:16:53;;;;;;;1.40;1.30;;;16.30;99.90;;;;;;5035492;28;20208;-76
2021/06/24 04:19:20;;;;;;;1.53;1.43;;;16.40;99.90;;;;;;5040605;28;20454;-77
2021/06/24 04:21:47;;;;;;;1.03;1.03;;;16.50;99.90;;;;;;5037611;28;20470;-76
2021/06/24 04:24:14;;;;;;;1.47;1.37;;;16.50;99.90;;;;;;5030078;28;21193;-76
2021/06/24 04:26:41;;;;;;;1.30;1.20;;;16.60;99.90;;;;;;5028134;28;20494;-76
2021/06/24 04:29:08;;;;;;;0.90;0.90;;;16.70;99.90;;;;;;5032253;28;20454;-76
2021/06/24 04:31:35;;;;;;;0.93;0.93;;;16.70;99.90;;;;;;5034111;28;20491;-76
2021/06/24 04:34:05;;;;;;;1.30;1.20;;;16.80;99.90;;;;;;5035412;28;20488;-75
2021/06/24 04:36:33;;;;;;;1.23;1.20;;;16.90;99.90;;;;;;5053448;28;20454;-76
2021/06/24 04:39:00;;;;;;;1.23;1.13;;;16.80;95.90;;;;;;5071966;28;20437;-75
2021/06/24 04:41:27;;;;;;;1.00;1.00;;;16.70;94.80;;;;;;5075684;28;20484;-75
2021/06/24 04:43:54;;;;;;;0.93;0.93;;;16.60;95.20;;;;;;5075202;28;20464;-75
2021/06/24 04:46:21;;;;;;;1.03;0.93;;;16.60;95.10;;;;;;5072378;28;20500;-76
2021/06/24 04:48:48;;;;;;;1.60;1.23;;;16.60;95.60;;;;;;5056127;28;20481;-76
2021/06/24 04:51:16;;;;;;;1.17;1.17;;;16.60;95.90;;;;;;5054785;28;20846;-75
2021/06/24 04:53:43;;;;;;;1.10;1.00;;;16.60;96.60;;;;;;5055066;28;20882;-77
2021/06/24 04:56:10;;;;;;;1.10;1.10;;;16.70;97.50;;;;;;5055907;28;20473;-77
2021/06/24 04:58:37;;;;;;;1.67;1.50;;;16.80;97.70;;;;;;5056985;28;20454;-76
2021/06/24 05:01:04;;;;;;;1.60;1.47;;;16.70;96.50;;;;;;5055346;28;20232;-75
2021/06/24 05:03:31;;;;;;;1.37;1.27;;;16.80;97.70;;;;;;5054508;28;20841;-76
2021/06/24 05:05:58;;;;;;;1.40;1.30;;;16.80;96.40;;;;;;5055321;28;20512;-76
2021/06/24 05:08:27;;;;;;;1.17;1.10;;;16.90;97.10;;;;;;5056081;28;20462;-76
2021/06/24 05:10:54;;;;;;;1.40;1.30;;;16.90;98.10;;;;;;5059534;28;20489;-77
2021/06/24 05:13:21;;;;;;;1.40;1.30;;;16.90;98.70;;;;;;5059390;28;20450;-76
2021/06/24 05:15:48;;;;;;;3.17;2.07;;;16.80;99.20;;;;;;5055317;28;20480;-76
2021/06/24 05:18:15;;;;;;;2.43;2.00;;;16.90;99.80;;;;;;5058394;28;21021;-76
2021/06/24 05:20:44;;;;;;;2.13;1.73;;;16.80;99.50;;;;;;5057684;28;20432;-77
2021/06/24 05:23:13;;;;;;;2.90;1.87;;;16.90;99.90;;;;;;5055372;28;20441;-76
2021/06/24 05:25:41;;;;;;;2.40;1.70;;;17.00;99.30;;;;;;5054219;28;20997;-77
2021/06/24 05:28:09;;;;;;;1.60;1.50;;;17.10;97.80;;;;;;5054011;28;20438;-77
2021/06/24 05:30:36;;;;;;;1.92;1.75;;;16.90;98.30;;;;;;5053868;28;20202;-77
2021/06/24 05:33:04;;;;;;;1.87;1.77;;;16.90;99.80;;;;;;5054215;28;20253;-77
2021/06/24 05:35:31;;;;;;;2.53;1.70;;;16.90;99.90;;;;;;5054443;28;20493;-77
2021/06/24 05:37:58;;;;;;;2.10;1.77;;;16.90;99.90;;;;;;5059910;28;20480;-77
2021/06/24 05:40:25;;;;;;;2.25;2.10;;;17.00;99.90;;;;;;5062228;28;20940;-76
2021/06/24 05:42:54;;;;;;;3.27;2.10;;;17.00;99.60;;;;;;5057616;28;20234;-76
2021/06/24 05:45:27;;;;;;;2.17;1.93;;;16.90;99.90;;;;;;5057710;28;20960;-76
2021/06/24 05:47:55;;;;;;;3.00;2.80;;;17.10;99.80;;;;;;5057679;28;20412;-76
2021/06/24 05:50:22;;;;;;;2.07;1.97;;;17.20;99.30;;;;;;5056516;28;20458;-77
2021/06/24 05:52:49;;;;;;;4.53;1.70;;;17.40;98.80;;;;;;5058497;28;20442;-76
2021/06/24 05:55:17;;;;;;;2.37;1.83;;;17.40;97.50;;;;;;5068817;28;20449;-76
2021/06/24 05:57:44;;;;;;;1.93;1.67;;;17.60;97.40;;;;;;5076258;28;20433;-77
2021/06/24 06:00:14;;;;;;;1.93;1.83;;;17.70;96.80;;;;;;5072730;28;20455;-77
2021/06/24 06:02:41;;;;;;;1.93;1.83;;;17.90;96.40;;;;;;5036698;28;20456;-76
2021/06/24 06:05:09;;;;;;;1.50;1.40;;;18.40;94.30;;;;;;5027244;28;20737;-74
2021/06/24 06:07:36;;;;;;;1.83;1.60;;;18.70;90.90;;;;;;5014283;28;20473;-77
2021/06/24 06:10:03;;;;;;;3.00;1.70;;;18.70;88.40;;;;;;5013022;28;20559;-75
2021/06/24 06:12:30;;;;;;;2.83;1.60;;;19.10;86.70;;;;;;5013381;28;20454;-75
2021/06/24 06:14:57;;;;;;;1.83;1.40;;;19.40;83.40;;;;;;5039625;23;20505;-76
2021/06/24 06:17:25;;;;;;;1.70;1.60;;;19.60;78.90;;;;;;5035317;28;20907;-76
2021/06/24 06:19:52;;;;;;;1.57;1.37;;;18.70;84.20;;;;;;5034439;28;20437;-76
2021/06/24 06:22:19;;;;;;;1.67;1.57;;;18.90;86.40;;;;;;5033274;28;20446;-76
2021/06/24 06:24:46;;;;;;;1.53;1.43;;;19.10;81.90;;;;;;5032440;28;20474;-76
2021/06/24 06:27:13;;;;;;;2.77;1.57;;;18.90;84.40;;;;;;5032303;28;20482;-76
2021/06/24 06:29:40;;;;;;;1.73;1.63;;;19.20;83.10;;;;;;5032674;28;20507;-76
2021/06/24 06:32:07;;;;;;;2.00;1.80;;;19.10;81.80;;;;;;5033095;28;20484;-76
2021/06/24 06:34:36;;;;;;;4.80;2.20;;;18.80;85.30;;;;;;5032665;28;20975;-76
2021/06/24 06:37:03;;;;;;;1.80;1.70;;;18.90;87.40;;;;;;5033492;28;20512;-77
2021/06/24 06:39:30;;;;;;;2.30;2.17;;;19.00;84.50;;;;;;5033080;28;20954;-76
2021/06/24 06:41:57;;;;;;;3.50;3.20;;;18.80;87.40;;;;;;5033723;28;20489;-76
2021/06/24 06:44:24;;;;;;;4.50;3.00;;;18.70;90.20;;;;;;5034844;28;20876;-76
2021/06/24 06:46:51;;;;;;;4.00;3.70;;;18.40;91.00;;;;;;5036079;28;20447;-77
2021/06/24 06:49:18;;;;;;;4.00;3.70;;;18.40;92.10;;;;;;5036334;28;20466;-77
2021/06/24 06:51:46;;;;;;;6.40;3.33;;;18.30;93.10;;;;;;5034259;28;20440;-76
2021/06/24 06:54:13;;;;;;;4.90;4.50;;;18.50;94.10;;;;;;5034167;28;20944;-77
2021/06/24 06:56:45;;;;;;;4.87;4.47;;;18.90;91.30;;;;;;5045845;28;20476;-77
2021/06/24 06:59:12;;;;;;;4.70;4.30;;;19.50;87.60;;;;;;5050153;28;20462;-76
2021/06/24 07:01:39;;;;;;;4.90;4.50;;;20.00;81.10;;;;;;5041228;28;20469;-76
2021/06/24 07:04:06;;;;;;;4.87;4.37;;;20.50;77.20;;;;;;5033900;28;20459;-76
2021/06/24 07:06:33;;;;;;;5.10;4.70;;;20.70;75.70;;;;;;5039849;28;20467;-76
2021/06/24 07:09:01;;;;;;;7.73;6.93;;;21.30;72.20;;;;;;5034273;28;20471;-76
2021/06/24 07:11:33;;;;;;;7.80;7.10;;;21.60;68.50;;;;;;5045713;28;20435;-76
2021/06/24 07:14:00;;;;;;;8.50;7.80;;;21.60;67.50;;;;;;5056398;28;20529;-77
2021/06/24 07:16:26;;;;;;;8.90;8.00;;;21.40;68.80;;;;;;5055338;28;20481;-75
2021/06/24 07:18:53;;;;;;;9.57;8.57;;;21.70;69.10;;;;;;5052009;28;20426;-75
2021/06/24 07:21:20;;;;;;;9.50;8.50;;;21.50;69.20;;;;;;5056624;28;20416;-77
2021/06/24 07:23:47;;;;;;;8.50;7.80;;;21.50;69.20;;;;;;5049997;28;20420;-77
2021/06/24 07:26:15;;;;;;;8.30;7.50;;;21.30;69.00;;;;;;5039091;28;20523;-76
2021/06/24 07:28:42;;;;;;;8.13;7.33;;;21.20;70.30;;;;;;5037104;28;20428;-77
2021/06/24 07:31:10;;;;;;;9.30;8.40;;;21.20;71.30;;;;;;5037092;28;20475;-77
2021/06/24 07:33:37;;;;;;;10.57;9.57;;;21.50;69.20;;;;;;5035715;28;20967;-76
2021/06/24 07:36:04;;;;;;;10.53;9.10;;;21.50;69.20;;;;;;5037050;28;20556;-76
2021/06/24 07:38:31;;;;;;;10.73;9.60;;;21.70;68.20;;;;;;5037844;28;20516;-77
2021/06/24 07:40:58;;;;;;;11.23;10.13;;;21.40;69.70;;;;;;5035959;28;20936;-76
2021/06/24 07:43:26;;;;;;;10.20;9.10;;;21.10;72.10;;;;;;5036277;28;20496;-75
2021/06/24 07:45:53;;;;;;;10.57;9.57;;;21.70;69.30;;;;;;5035592;28;20993;-75
2021/06/24 07:48:20;;;;;;;10.27;9.37;;;22.20;66.10;;;;;;5035832;28;20485;-77
2021/06/24 07:50:47;;;;;;;11.20;10.10;;;22.00;67.60;;;;;;5037136;28;20967;-77
2021/06/24 07:53:14;;;;;;;10.93;9.93;;;22.00;67.00;;;;;;5036778;28;20460;-76
2021/06/24 07:55:41;;;;;;;11.77;10.67;;;22.20;65.20;;;;;;5036734;28;20957;-77
2021/06/24 07:58:09;;;;;;;11.90;10.63;;;22.20;65.20;;;;;;5038068;28;20525;-77
2021/06/24 08:00:38;;;;;;;11.97;10.83;;;22.20;64.90;;;;;;5035884;28;20434;-76
2021/06/24 08:03:06;;;;;;;10.83;9.73;;;22.10;64.80;;;;;;5036333;28;20452;-77
2021/06/24 08:05:33;;;;;;;11.67;10.57;;;22.10;64.80;;;;;;5037898;28;20445;-76
2021/06/24 08:08:00;;;;;;;12.20;11.10;;;21.60;68.10;;;;;;5039954;28;20435;-78
2021/06/24 08:10:27;;;;;;;15.47;12.63;;;21.70;68.10;;;;;;5025738;28;20457;-76
2021/06/24 08:12:54;;;;;;;12.50;11.30;;;21.90;67.10;;;;;;5030233;28;20989;-78
2021/06/24 08:15:23;;;;;;;11.90;10.00;;;22.30;64.90;;;;;;5031422;28;20524;-78
2021/06/24 08:17:52;;;;;;;13.53;11.90;;;22.70;63.30;;;;;;5039102;28;20931;-77
2021/06/24 08:20:19;;;;;;;13.63;10.80;;;22.80;62.50;;;;;;5031188;28;20469;-76
2021/06/24 08:22:46;;;;;;;11.67;10.50;;;23.20;60.20;;;;;;5022438;28;20452;-76
2021/06/24 08:25:14;;;;;;;11.37;10.20;;;23.40;58.80;;;;;;5023993;28;20463;-76
2021/06/24 08:27:41;;;;;;;11.90;10.77;;;23.30;59.50;;;;;;5026930;28;20491;-78
2021/06/24 08:30:10;;;;;;;11.67;10.47;;;23.40;59.00;;;;;;5035613;28;20435;-76
2021/06/24 08:32:37;;;;;;;11.97;10.87;;;23.30;57.00;;;;;;5022517;28;20445;-78
2021/06/24 08:35:08;;;;;;;11.03;10.03;;;22.80;58.60;;;;;;5028517;28;20990;-77
2021/06/24 08:37:35;;;;;;;11.83;10.73;;;22.80;58.70;;;;;;5025602;28;20437;-77
2021/06/24 08:40:03;;;;;;;10.90;9.90;;;23.00;57.50;;;;;;5040365;28;20511;-76
2021/06/24 08:42:31;;;;;;;11.60;10.50;;;23.30;56.60;;;;;;5017345;28;20450;-77
2021/06/24 08:45:00;;;;;;;10.83;9.83;;;23.10;57.80;;;;;;5029401;28;20477;-77
2021/06/24 08:47:29;;;;;;;15.77;11.10;;;23.00;57.30;;;;;;5021059;28;20463;-76
2021/06/24 08:49:57;;;;;;;12.93;11.60;;;22.80;60.90;;;;;;5018408;28;20457;-77
2021/06/24 08:52:26;;;;;;;12.57;11.37;;;22.50;61.90;;;;;;5017491;28;21019;-76
2021/06/24 08:54:53;;;;;;;15.13;11.00;;;22.90;61.20;;;;;;5016761;28;20508;-76
2021/06/24 08:57:21;;;;;;;12.03;10.90;;;22.80;61.50;;;;;;5034059;28;20452;-76
2021/06/24 08:59:48;;;;;;;12.00;10.80;;;23.20;59.80;;;;;;5022295;28;20489;-76
2021/06/24 09:02:17;;;;;;;11.87;10.77;;;23.20;59.30;;;;;;5021166;28;20455;-76
2021/06/24 09:04:47;;;;;;;11.10;10.10;;;23.20;60.40;;;;;;5028804;28;20457;-77
2021/06/24 09:07:20;;;;;;;11.50;10.40;;;23.40;58.30;;;;;;5050104;28;20492;-77
2021/06/24 09:09:52;;;;;;;11.50;10.30;;;23.30;58.10;;;;;;5029029;28;20481;-76
2021/06/24 09:12:20;;;;;;;14.50;13.10;;;23.00;60.10;;;;;;5017931;28;20462;-76
2021/06/24 09:14:49;;;;;;;13.63;12.17;;;22.50;62.80;;;;;;5015491;28;20504;-76
2021/06/24 09:17:35;;;;;;;12.80;11.60;;;22.50;63.30;;;;;;5013959;28;20444;-77
2021/06/24 09:20:04;;;;;;;12.97;11.60;;;22.60;62.70;;;;;;5014298;28;20474;-76
2021/06/24 09:22:31;;;;;;;12.03;10.93;;;23.20;60.10;;;;;;5014598;28;20540;-76
2021/06/24 09:24:59;;;;;;;11.63;10.43;;;23.60;57.80;;;;;;5017770;28;20509;-76
2021/06/24 09:27:29;;;;;;;11.07;10.07;;;24.00;57.00;;;;;;5018386;28;21036;-76
2021/06/24 09:30:07;;;;;;;10.67;9.67;;;24.00;54.20;;;;;;5015084;28;20669;-77
2021/06/24 09:32:35;;;;;;;11.37;10.37;;;24.00;54.40;;;;;;5014490;28;20453;-76
2021/06/24 09:35:05;;;;;;;12.37;10.70;;;23.80;55.20;;;;;;5016309;28;20801;-76
2021/06/24 09:38:01;;;;;;;11.37;10.37;;;23.80;55.30;;;;;;5016676;28;20472;-76
2021/06/24 09:40:42;;;;;;;10.87;9.93;;;23.80;56.20;;;;;;5015061;28;20462;-76
2021/06/24 09:43:16;;;;;;;10.60;9.70;;;24.00;55.60;;;;;;5013705;28;20521;-76
2021/06/24 09:45:59;;;;;;;10.10;9.10;;;24.50;53.10;;;;;;5013034;28;20483;-76
2021/06/24 09:48:33;;;;;;;9.20;8.40;;;24.30;52.90;;;;;;5018170;28;20470;-75
2021/06/24 09:51:09;;;;;;;8.87;8.13;;;24.60;51.90;;;;;;5053354;28;20445;-76
2021/06/24 09:53:51;;;;;;;7.67;7.07;;;24.90;50.20;;;;;;5054486;28;20434;-76
2021/06/24 09:56:28;;;;;;;8.30;7.53;;;24.90;49.60;;;;;;5051706;28;20985;-76
2021/06/24 09:58:58;;;;;;;8.13;7.43;;;24.60;50.70;;;;;;5034447;28;20444;-76
2021/06/24 10:01:37;;;;;;;8.90;7.93;;;25.10;50.20;;;;;;5035921;28;20485;-76
2021/06/24 10:04:06;;;;;;;8.60;7.97;;;24.70;49.60;;;;;;5046324;28;20440;-76
2021/06/24 10:06:33;;;;;;;8.23;7.53;;;24.50;50.60;;;;;;5037123;28;20469;-78
2021/06/24 10:09:00;;;;;;;7.10;6.40;;;24.40;49.70;;;;;;5043744;28;20461;-77
2021/06/24 10:11:28;;;;;;;6.00;5.50;;;24.30;49.00;;;;;;5046712;28;20469;-77
2021/06/24 10:13:56;;;;;;;6.90;6.30;;;24.30;48.90;;;;;;5041423;28;20875;-77
2021/06/24 10:16:26;;;;;;;7.83;7.13;;;24.00;49.40;;;;;;5047649;28;20503;-77
2021/06/24 10:18:54;;;;;;;7.57;6.87;;;24.20;50.40;;;;;;5042016;28;20536;-76
2021/06/24 10:21:23;;;;;;;7.53;6.80;;;24.20;50.40;;;;;;5035200;28;20489;-77
2021/06/24 10:23:55;;;;;;;7.57;6.97;;;24.10;49.80;;;;;;5037578;28;20556;-76
2021/06/24 10:26:24;;;;;;;7.40;6.70;;;23.90;49.40;;;;;;5041864;28;20443;-76
2021/06/24 10:29:11;;;;;;;6.70;6.20;;;23.90;50.60;;;;;;5047881;28;20949;-77
2021/06/24 10:31:40;;;;;;;6.57;6.00;;;24.50;48.60;;;;;;5034272;28;20453;-78
2021/06/24 10:34:08;;;;;;;6.33;5.73;;;24.90;46.80;;;;;;5037680;28;20455;-76
2021/06/24 10:36:35;;;;;;;5.97;5.50;;;25.50;44.50;;;;;;5046553;28;20990;-77
2021/06/24 10:39:08;;;;;;;5.50;5.10;;;25.00;45.30;;;;;;5045769;28;20419;-77
2021/06/24 10:42:04;;;;;;;5.60;5.20;;;24.20;47.80;;;;;;5044428;28;20830;-78
2021/06/24 10:44:56;;;;;;;6.60;5.80;;;24.80;45.70;;;;;;5038636;28;20451;-77
2021/06/24 10:47:42;;;;;;;6.43;5.83;;;24.50;46.30;;;;;;5053661;28;20444;-77
2021/06/24 10:50:44;;;;;;;5.40;4.90;;;24.50;47.20;;;;;;5052669;28;20453;-77
2021/06/24 10:53:47;;;;;;;6.47;5.97;;;24.50;45.90;;;;;;5048611;28;20436;-79
2021/06/24 10:56:35;;;;;;;5.90;5.40;;;25.10;43.50;;;;;;5051881;28;20507;-77
2021/06/24 10:59:22;;;;;;;7.03;6.53;;;25.40;43.80;;;;;;5047925;28;20422;-77
2021/06/24 11:01:50;;;;;;;7.07;6.47;;;24.90;46.10;;;;;;5041142;28;20424;-76
2021/06/24 11:04:32;;;;;;;8.53;7.83;;;24.20;48.60;;;;;;5040046;28;20868;-77
2021/06/24 11:07:06;;;;;;;7.13;6.53;;;23.90;50.20;;;;;;5039521;28;20569;-77
2021/06/24 11:09:33;;;;;;;7.53;6.83;;;23.80;49.70;;;;;;5031466;28;20490;-79
2021/06/24 11:12:00;;;;;;;6.87;6.27;;;23.50;49.90;;;;;;5021706;28;20968;-76
2021/06/24 11:14:54;;;;;;;6.60;6.10;;;23.50;50.40;;;;;;5017528;28;20460;-77
2021/06/24 11:17:52;;;;;;;6.90;6.20;;;23.30;51.70;;;;;;5017558;28;20953;-77
2021/06/24 11:20:20;;;;;;;6.97;6.37;;;23.30;51.90;;;;;;4958336;29;20452;-76
2021/06/24 11:22:50;;;;;;;8.33;7.63;;;23.10;55.00;;;;;;5007178;28;20496;-78
2021/06/24 11:25:18;;;;;;;7.70;7.10;;;23.00;54.80;;;;;;5019535;28;20473;-76
2021/06/24 11:27:45;;;;;;;9.03;8.10;;;22.80;55.60;;;;;;5038245;28;20458;-77
2021/06/24 11:30:13;;;;;;;8.63;7.93;;;22.70;55.80;;;;;;5036425;28;20493;-75
2021/06/24 11:32:45;;;;;;;8.87;8.17;;;22.60;56.50;;;;;;5035231;28;20455;-75
2021/06/24 11:35:28;;;;;;;8.20;7.40;;;22.60;57.40;;;;;;5038649;28;20563;-80
2021/06/24 11:38:00;;;;;;;8.17;7.40;;;23.10;56.50;;;;;;5037991;28;20522;-79
2021/06/24 11:40:28;;;;;;;7.80;7.10;;;23.20;55.30;;;;;;5036905;28;20414;-77
2021/06/24 11:42:55;;;;;;;8.53;7.83;;;23.40;54.50;;;;;;5040155;28;20418;-79
2021/06/24 11:45:24;;;;;;;8.17;7.47;;;23.20;55.60;;;;;;5047936;28;20546;-77
2021/06/24 11:47:57;;;;;;;8.87;8.07;;;22.90;57.70;;;;;;5045094;28;20441;-79
2021/06/24 12:04:14;;;;;;;7.73;7.03;;;22.50;57.50;;;;;;5035694;28;20418;-79
2021/06/24 12:06:52;;;;;;;8.30;7.60;;;22.30;56.40;;;;;;5037875;28;20459;-78
2021/06/24 12:09:22;;;;;;;7.80;7.20;;;22.40;57.60;;;;;;5039891;28;20522;-80
2021/06/24 12:11:51;;;;;;;7.50;6.80;;;22.20;57.90;;;;;;5039175;28;21037;-77
2021/06/24 12:14:19;;;;;;;8.60;7.50;;;22.40;58.20;;;;;;5041238;28;20431;-78
2021/06/24 12:17:08;;;;;;;7.30;6.80;;;22.70;56.80;;;;;;5041174;28;20467;-79
2021/06/24 12:19:56;;;;;;;7.17;6.57;;;23.20;55.30;;;;;;5040454;28;20464;-79
2021/06/24 12:22:27;;;;;;;6.63;6.10;;;23.40;52.00;;;;;;5044572;28;20436;-79
2021/06/24 12:24:54;;;;;;;7.43;4.73;;;23.30;52.50;;;;;;5045470;28;20471;-78
2021/06/24 12:27:27;;;;;;;5.13;3.60;;;22.90;59.70;;;;;;5050279;28;20448;-79
2021/06/24 12:29:58;;;;;;;4.20;3.00;;;21.90;60.30;;;;;;5045995;28;20420;-79
2021/06/24 12:32:27;;;;;;;4.57;2.97;;;21.30;64.60;;;;;;5039759;28;20806;-80
2021/06/24 12:34:57;;;;;;;4.70;2.80;;;20.80;70.00;;;;;;5044879;28;20436;-78
2021/06/24 12:37:44;;;;;;;5.80;3.50;;;19.60;72.80;;;;;;5041877;28;20462;-78
2021/06/24 12:40:14;;;;;;;6.37;3.43;;;19.30;83.40;;;;;;5041151;28;20429;-78
2021/06/24 12:42:49;;;;;;;6.37;3.60;;;19.30;89.30;;;;;;5036622;28;20489;-79
2021/06/24 12:45:18;;;;;;;3.40;3.10;;;19.40;91.40;;;;;;5035181;28;20529;-77
2021/06/24 12:47:46;;;;;;;3.40;3.10;;;19.20;86.30;;;;;;5039251;28;20503;-78
2021/06/24 12:50:20;;;;;;;3.70;3.40;;;19.30;91.40;;;;;;5039544;28;20481;-79
2021/06/24 12:52:51;;;;;;;3.80;3.17;;;19.40;91.50;;;;;;5041166;28;20442;-80
2021/06/24 12:55:42;;;;;;;5.03;3.20;;;19.60;90.30;;;;;;5041949;28;21016;-79
2021/06/24 12:58:12;;;;;;;4.27;3.10;;;19.70;91.00;;;;;;5040728;28;20473;-78
2021/06/24 13:00:41;;;;;;;4.87;3.53;;;19.90;90.50;;;;;;5045569;28;20461;-79
2021/06/24 13:03:08;;;;;;;3.90;3.50;;;20.20;90.80;;;;;;5043994;28;20519;-78
2021/06/24 13:05:35;;;;;;;3.43;3.13;;;20.50;89.10;;;;;;5050940;28;20485;-78